createdAt,value
2023-05-17T00:02:02.306Z,100361.47
2023-05-17T00:04:28.847Z,100357.06
2023-05-17T00:06:56.256Z,100361.47
2023-05-17T00:09:22.746Z,100361.81
2023-05-17T00:11:50.169Z,100365.81
2023-05-17T00:14:17.568Z,100361.41
2023-05-17T00:16:45.020Z,100368.56
2023-05-17T00:19:12.489Z,100362.97
2023-05-17T00:21:39.150Z,100366.56
2023-05-17T00:24:06.597Z,100363.78
2023-05-17T00:26:33.083Z,100365.41
2023-05-17T00:29:00.515Z,100367.84
2023-05-17T00:31:27.117Z,100367.44
2023-05-17T00:33:53.621Z,100366.63
2023-05-17T00:36:21.051Z,100362.97
2023-05-17T00:38:48.467Z,100356.66
2023-05-17T00:41:15.904Z,100361.97
2023-05-17T00:43:42.387Z,100362.31
2023-05-17T00:46:08.889Z,100366.66
2023-05-17T00:48:36.388Z,100367.41
2023-05-17T00:51:03.927Z,100369.00
2023-05-17T00:53:31.347Z,100367.03
2023-05-17T00:55:57.821Z,100365.81
2023-05-17T00:58:25.260Z,100365.03
2023-05-17T01:00:52.643Z,100365.81
2023-05-17T01:03:20.297Z,100360.28
2023-05-17T01:05:46.882Z,100359.91
2023-05-17T01:08:13.392Z,100359.13
2023-05-17T01:10:40.779Z,100359.06
2023-05-17T01:13:08.285Z,100357.06
2023-05-17T01:15:34.777Z,100363.47
2023-05-17T01:18:01.418Z,100361.50
2023-05-17T01:20:29.018Z,100363.09
2023-05-17T01:22:56.497Z,100357.16
2023-05-17T01:25:22.974Z,100353.97
2023-05-17T01:27:49.454Z,100356.34
2023-05-17T01:30:15.930Z,100351.16
2023-05-17T01:32:42.469Z,100356.34
2023-05-17T01:35:09.902Z,100354.31
2023-05-17T01:37:36.347Z,100358.34
2023-05-17T01:40:03.697Z,100359.13
2023-05-17T01:42:30.164Z,100356.38
2023-05-17T01:44:56.656Z,100364.31
2023-05-17T01:47:24.108Z,100364.72
2023-05-17T01:49:50.601Z,100357.16
2023-05-17T01:52:18.028Z,100356.81
2023-05-17T01:54:44.495Z,100353.25
2023-05-17T01:57:10.985Z,100353.91
2023-05-17T01:59:38.282Z,100355.25
2023-05-17T02:02:04.758Z,100356.88
2023-05-17T02:04:31.323Z,100353.31
2023-05-17T02:06:57.859Z,100346.66
2023-05-17T02:09:24.333Z,100362.94
2023-05-17T02:11:52.686Z,100359.72
2023-05-17T02:14:20.028Z,100351.84
2023-05-17T02:16:46.575Z,100363.78
2023-05-17T02:19:13.114Z,100365.38
2023-05-17T02:21:40.452Z,100361.81
2023-05-17T02:24:07.823Z,100367.34
2023-05-17T02:26:35.141Z,100358.59
2023-05-17T02:29:02.454Z,100365.41
2023-05-17T02:31:28.935Z,100374.97
2023-05-17T02:33:56.499Z,100374.59
2023-05-17T02:36:23.984Z,100371.81
2023-05-17T02:38:51.298Z,100369.41
2023-05-17T02:41:18.682Z,100374.19
2023-05-17T02:43:45.162Z,100371.44
2023-05-17T02:46:12.499Z,100362.69
2023-05-17T02:48:39.786Z,100376.22
2023-05-17T02:51:06.266Z,100369.44
2023-05-17T02:53:32.773Z,100378.59
2023-05-17T02:56:00.073Z,100385.34
2023-05-17T02:58:27.463Z,100392.91
2023-05-17T03:00:54.832Z,100394.44
2023-05-17T03:03:21.396Z,100383.34
2023-05-17T03:05:47.923Z,100377.00
2023-05-17T03:08:14.418Z,100384.56
2023-05-17T03:10:40.904Z,100385.75
2023-05-17T03:13:08.312Z,100390.13
2023-05-17T03:15:34.797Z,100392.91
2023-05-17T03:18:02.200Z,100398.06
2023-05-17T03:20:28.711Z,100399.31
2023-05-17T03:22:56.059Z,100401.28
2023-05-17T03:25:22.518Z,100409.63
2023-05-17T03:27:49.924Z,100408.41
2023-05-17T03:30:16.398Z,100406.03
2023-05-17T03:32:43.893Z,100408.81
2023-05-17T03:35:11.270Z,100404.81
2023-05-17T03:37:40.490Z,100402.09
2023-05-17T03:40:06.934Z,100394.13
2023-05-17T03:42:33.394Z,100396.50
2023-05-17T03:44:59.878Z,100400.88
2023-05-17T03:47:26.466Z,100403.66
2023-05-17T03:49:52.977Z,100407.63
2023-05-17T03:52:21.362Z,100405.25
2023-05-17T03:54:48.668Z,100408.41
2023-05-17T03:57:16.023Z,100406.84
2023-05-17T03:59:42.468Z,100399.25
2023-05-17T04:02:08.921Z,100406.00
2023-05-17T04:04:35.433Z,100409.59
2023-05-17T04:07:02.048Z,100416.72
2023-05-17T04:09:29.315Z,100417.94
2023-05-17T04:11:57.647Z,100413.50
2023-05-17T04:14:24.151Z,100411.50
2023-05-17T04:16:50.640Z,100412.25
2023-05-17T04:19:17.219Z,100415.03
2023-05-17T04:21:43.886Z,100419.00
2023-05-17T04:24:12.210Z,100420.53
2023-05-17T04:26:38.735Z,100432.13
2023-05-17T04:29:05.208Z,100432.09
2023-05-17T04:31:31.749Z,100429.72
2023-05-17T04:33:59.057Z,100428.50
2023-05-17T04:36:28.296Z,100430.50
2023-05-17T04:38:55.668Z,100430.53
2023-05-17T04:41:24.019Z,100430.88
2023-05-17T04:43:50.547Z,100429.28
2023-05-17T04:46:17.018Z,100422.16
2023-05-17T04:48:44.409Z,100423.72
2023-05-17T04:51:10.936Z,100428.03
2023-05-17T04:53:37.401Z,100434.41
2023-05-17T04:56:04.733Z,100438.00
2023-05-17T04:58:33.075Z,100439.63
2023-05-17T05:01:00.344Z,100445.16
2023-05-17T05:03:26.857Z,100447.97
2023-05-17T05:05:53.363Z,100450.75
2023-05-17T05:08:19.845Z,100452.31
2023-05-17T05:10:46.247Z,100447.97
2023-05-17T05:13:12.650Z,100451.13
2023-05-17T05:15:39.892Z,100443.56
2023-05-17T05:18:06.421Z,100445.94
2023-05-17T05:20:33.753Z,100455.09
2023-05-17T05:23:01.016Z,100452.66
2023-05-17T05:25:27.880Z,100455.47
2023-05-17T05:27:54.483Z,100459.91
2023-05-17T05:30:20.911Z,100454.28
2023-05-17T05:32:47.352Z,100445.94
2023-05-17T05:35:13.842Z,100451.88
2023-05-17T05:37:40.285Z,100447.84
2023-05-17T05:40:07.555Z,100448.59
2023-05-17T05:42:33.985Z,100449.41
2023-05-17T05:45:01.271Z,100445.84
2023-05-17T05:47:27.712Z,100431.97
2023-05-17T05:49:54.987Z,100424.84
2023-05-17T05:52:21.411Z,100418.88
2023-05-17T05:54:48.006Z,100420.88
2023-05-17T05:57:15.437Z,100420.47
2023-05-17T05:59:41.962Z,100424.03
2023-05-17T06:02:08.478Z,100415.31
2023-05-17T06:04:44.649Z,100423.22
2023-05-17T06:07:12.297Z,100433.94
2023-05-17T06:09:39.714Z,100441.50
2023-05-17T06:12:07.016Z,100453.00
2023-05-17T06:14:33.521Z,100452.25
2023-05-17T06:17:00.034Z,100449.47
2023-05-17T06:19:26.696Z,100453.84
2023-05-17T06:21:53.325Z,100461.00
2023-05-17T06:24:20.623Z,100455.78
2023-05-17T06:26:47.180Z,100463.78
2023-05-17T06:29:13.702Z,100466.13
2023-05-17T06:31:40.144Z,100467.69
2023-05-17T06:34:07.636Z,100469.63
2023-05-17T06:36:34.742Z,100467.25
2023-05-17T06:39:02.677Z,100472.41
2023-05-17T06:41:29.963Z,100473.59
2023-05-17T06:43:56.487Z,100485.09
2023-05-17T06:46:25.421Z,100482.81
2023-05-17T06:48:52.851Z,100491.16
2023-05-17T06:51:19.429Z,100509.03
2023-05-17T06:53:46.794Z,100501.06
2023-05-17T06:56:15.381Z,100508.66
2023-05-17T06:58:42.925Z,100515.41
2023-05-17T07:01:09.741Z,100514.63
2023-05-17T07:03:37.494Z,100512.22
2023-05-17T07:06:05.238Z,100516.22
2023-05-17T07:08:32.951Z,100516.25
2023-05-17T07:10:59.494Z,100507.56
2023-05-17T07:13:26.028Z,100502.75
2023-05-17T07:15:52.621Z,100507.94
2023-05-17T07:18:21.855Z,100513.13
2023-05-17T07:20:48.331Z,100519.09
2023-05-17T07:23:14.765Z,100517.09
2023-05-17T07:25:42.034Z,100515.13
2023-05-17T07:28:08.419Z,100513.16
2023-05-17T07:30:35.683Z,100509.97
2023-05-17T07:33:02.107Z,100514.34
2023-05-17T07:35:29.139Z,100514.75
2023-05-17T07:37:55.744Z,100513.19
2023-05-17T07:40:22.256Z,100505.16
2023-05-17T07:42:48.785Z,100499.22
2023-05-17T07:45:16.266Z,100508.78
2023-05-17T07:47:42.881Z,100509.22
2023-05-17T07:50:09.455Z,100517.13
2023-05-17T07:52:36.927Z,100523.88
2023-05-17T07:55:03.459Z,100527.81
2023-05-17T07:57:29.985Z,100534.97
2023-05-17T07:59:57.424Z,100525.78
2023-05-17T08:02:24.944Z,100524.56
2023-05-17T08:04:52.481Z,100531.31
2023-05-17T08:07:19.039Z,100531.28
2023-05-17T08:09:48.521Z,100537.22
2023-05-17T08:12:15.081Z,100530.50
2023-05-17T08:14:42.568Z,100533.63
2023-05-17T08:17:10.037Z,100525.25
2023-05-17T08:19:36.792Z,100531.59
2023-05-17T08:22:03.431Z,100532.84
2023-05-17T08:24:29.950Z,100531.28
2023-05-17T08:26:56.459Z,100535.19
2023-05-17T08:29:25.054Z,100533.19
2023-05-17T08:31:52.833Z,100537.97
2023-05-17T08:34:19.406Z,100541.56
2023-05-17T08:36:46.931Z,100545.50
2023-05-17T08:39:14.371Z,100548.69
2023-05-17T08:41:41.793Z,100549.88
2023-05-17T08:44:09.238Z,100539.47
2023-05-17T08:46:35.753Z,100548.63
2023-05-17T08:49:03.344Z,100552.28
2023-05-17T08:51:30.893Z,100570.94
2023-05-17T08:53:58.242Z,100568.53
2023-05-17T08:56:36.692Z,100566.97
2023-05-17T08:59:03.192Z,100573.00
2023-05-17T09:01:32.242Z,100589.28
2023-05-17T09:04:00.600Z,100580.84
2023-05-17T09:06:27.088Z,100569.72
2023-05-17T09:08:54.516Z,100564.94
2023-05-17T09:11:22.024Z,100568.16
2023-05-17T09:13:48.576Z,100569.34
2023-05-17T09:18:43.532Z,100580.50
2023-05-17T09:21:10.957Z,100577.34
2023-05-17T09:23:37.449Z,100581.66
2023-05-17T09:26:03.918Z,100571.28
2023-05-17T09:28:30.359Z,100577.25
2023-05-17T09:30:57.665Z,100584.03
2023-05-17T09:33:24.197Z,100577.72
2023-05-17T09:35:51.509Z,100579.31
2023-05-17T09:40:45.275Z,100585.25
2023-05-17T09:43:11.741Z,100593.22
2023-05-17T09:45:38.246Z,100592.47
2023-05-17T09:48:05.607Z,100599.63
2023-05-17T09:50:34.872Z,100598.81
2023-05-17T09:53:01.294Z,100602.00
2023-05-17T09:55:29.956Z,100603.63
2023-05-17T10:00:42.631Z,100611.22
2023-05-17T10:03:09.978Z,100614.78
2023-05-17T10:05:37.400Z,100609.22
2023-05-17T10:08:03.920Z,100615.59
2023-05-17T10:10:30.309Z,100616.81
2023-05-17T10:15:40.764Z,100626.78
2023-05-17T10:18:08.179Z,100620.38
2023-05-17T10:20:34.766Z,100618.84
2023-05-17T10:23:01.134Z,100624.75
2023-05-17T10:25:28.546Z,100624.75
2023-05-17T10:30:39.956Z,100627.97
2023-05-17T10:33:06.519Z,100627.53
2023-05-17T10:35:32.970Z,100634.66
2023-05-17T10:37:59.372Z,100625.16
2023-05-17T10:40:25.758Z,100631.53
2023-05-17T10:45:36.344Z,100627.97
2023-05-17T10:48:03.808Z,100628.00
2023-05-17T10:50:30.459Z,100633.19
2023-05-17T10:52:57.059Z,100631.59
2023-05-17T10:55:24.310Z,100641.94
2023-05-17T11:00:34.807Z,100636.78
2023-05-17T11:03:02.079Z,100632.41
2023-05-17T11:05:28.800Z,100641.56
2023-05-17T11:07:55.444Z,100634.78
2023-05-17T11:10:21.832Z,100641.16
2023-05-17T11:15:32.748Z,100643.56
2023-05-17T11:17:59.168Z,100649.50
2023-05-17T11:20:25.728Z,100653.50
2023-05-17T11:22:52.277Z,100653.50
2023-05-17T11:25:18.659Z,100648.31
2023-05-17T11:30:29.413Z,100659.03
2023-05-17T11:32:56.193Z,100663.00
2023-05-17T11:35:22.697Z,100660.63
2023-05-17T11:37:51.056Z,100661.81
2023-05-17T11:40:17.565Z,100654.28
2023-05-17T11:42:44.851Z,100657.06
2023-05-17T11:45:11.371Z,100660.63
2023-05-17T11:47:38.826Z,100657.47
2023-05-17T11:50:06.236Z,100655.91
2023-05-17T11:52:35.451Z,100662.25
2023-05-17T11:55:01.912Z,100659.06
2023-05-17T11:57:28.381Z,100663.41
2023-05-17T11:59:54.764Z,100659.47
2023-05-17T12:02:22.030Z,100663.03
2023-05-17T12:04:49.489Z,100665.03
2023-05-17T12:07:15.971Z,100668.19
2023-05-17T12:09:42.430Z,100659.84
2023-05-17T12:12:10.805Z,100657.47
2023-05-17T12:14:37.267Z,100667.41
2023-05-17T12:17:04.580Z,100664.22
2023-05-17T12:19:31.190Z,100665.81
2023-05-17T12:21:57.775Z,100675.75
2023-05-17T12:24:24.239Z,100680.09
2023-05-17T12:26:51.522Z,100685.69
2023-05-17T12:29:20.691Z,100685.28
2023-05-17T12:31:47.093Z,100685.69
2023-05-17T12:34:14.419Z,100687.66
2023-05-17T12:36:40.858Z,100693.63
2023-05-17T12:39:08.149Z,100694.03
2023-05-17T12:41:35.502Z,100687.66
2023-05-17T12:44:13.548Z,100688.88
2023-05-17T12:46:44.816Z,100695.63
2023-05-17T12:49:12.271Z,100690.84
2023-05-17T12:51:38.823Z,100697.63
2023-05-17T12:54:05.243Z,100698.78
2023-05-17T12:56:31.717Z,100684.88
2023-05-17T12:58:58.125Z,100692.06
2023-05-17T13:04:12.017Z,100696.41
2023-05-17T13:06:38.474Z,100696.81
2023-05-17T13:09:04.948Z,100687.66
2023-05-17T13:11:31.350Z,100684.88
2023-05-17T13:13:58.614Z,100685.66
2023-05-17T13:19:09.355Z,100685.66
2023-05-17T13:21:35.936Z,100692.03
2023-05-17T13:24:02.500Z,100690.44
2023-05-17T13:26:29.086Z,100696.81
2023-05-17T13:28:56.523Z,100690.06
2023-05-17T13:34:07.954Z,100699.19
2023-05-17T13:36:35.370Z,100695.22
2023-05-17T13:39:02.731Z,100698.78
2023-05-17T13:41:30.054Z,100707.13
2023-05-17T13:43:57.340Z,100712.69
2023-05-17T13:49:08.197Z,100710.31
2023-05-17T13:51:34.759Z,100716.28
2023-05-17T13:54:02.218Z,100718.66
2023-05-17T13:56:31.160Z,100723.44
2023-05-17T13:58:57.620Z,100722.66
2023-05-17T14:04:07.909Z,100732.19
2023-05-17T14:06:36.290Z,100738.53
2023-05-17T14:09:02.817Z,100733.78
2023-05-17T14:11:29.310Z,100739.34
2023-05-17T14:13:56.821Z,100742.13
2023-05-17T14:19:07.232Z,100729.78
2023-05-17T14:21:33.818Z,100733.78
2023-05-17T14:24:02.165Z,100739.72
2023-05-17T14:26:28.677Z,100747.69
2023-05-17T14:28:55.998Z,100748.09
2023-05-17T14:34:07.157Z,100769.94
2023-05-17T14:36:33.644Z,100779.06
2023-05-17T14:39:00.928Z,100789.81
2023-05-17T14:41:27.356Z,100784.25
2023-05-17T14:43:53.857Z,100791.38
2023-05-17T14:49:04.642Z,100796.16
2023-05-17T14:51:32.287Z,100810.47
2023-05-17T14:54:01.482Z,100803.28
2023-05-17T14:56:27.885Z,100804.91
2023-05-17T14:58:54.356Z,100802.50
2023-05-17T15:04:04.619Z,100798.56
2023-05-17T15:06:31.984Z,100804.91
2023-05-17T15:08:59.281Z,100809.69
2023-05-17T15:11:25.763Z,100808.91
2023-05-17T15:13:53.022Z,100812.47
2023-05-17T15:16:20.367Z,100821.59
2023-05-17T15:18:46.860Z,100831.94
2023-05-17T15:21:13.293Z,100831.13
2023-05-17T15:23:39.670Z,100834.72
2023-05-17T15:26:06.072Z,100834.72
2023-05-17T15:28:33.321Z,100837.09
2023-05-17T15:31:00.586Z,100839.47
2023-05-17T15:33:27.064Z,100845.84
2023-05-17T15:35:54.351Z,100843.44
2023-05-17T15:38:20.872Z,100844.63
2023-05-17T15:40:48.301Z,100843.06
2023-05-17T15:43:14.799Z,100845.84
2023-05-17T15:45:41.294Z,100850.19
2023-05-17T15:48:08.934Z,100851.00
2023-05-17T15:50:38.242Z,100852.97
2023-05-17T15:53:06.614Z,100855.75
2023-05-17T15:55:33.122Z,100856.97
2023-05-17T15:57:59.614Z,100857.34
2023-05-17T16:00:27.042Z,100862.91
2023-05-17T16:02:53.537Z,100862.13
2023-05-17T16:05:20.865Z,100861.75
2023-05-17T16:07:47.424Z,100860.13
2023-05-17T16:10:13.915Z,100867.69
2023-05-17T16:12:41.393Z,100860.91
2023-05-17T16:15:08.852Z,100866.09
2023-05-17T16:17:35.376Z,100854.97
2023-05-17T16:20:01.975Z,100864.50
2023-05-17T16:22:29.296Z,100857.75
2023-05-17T16:24:55.797Z,100865.69
2023-05-17T16:27:22.285Z,100870.47
2023-05-17T16:29:48.726Z,100868.09
2023-05-17T16:32:15.155Z,100871.66
2023-05-17T16:37:26.531Z,100875.28
2023-05-17T16:39:52.979Z,100869.28
2023-05-17T16:42:19.377Z,100868.09
2023-05-17T16:44:45.756Z,100874.06
2023-05-17T16:47:12.202Z,100878.00
2023-05-17T16:52:23.610Z,100876.44
2023-05-17T16:54:51.038Z,100879.59
2023-05-17T16:57:18.485Z,100886.34
2023-05-17T16:59:44.957Z,100882.00
2023-05-17T17:02:11.475Z,100881.59
2023-05-17T17:07:22.206Z,100884.78
2023-05-17T17:09:48.713Z,100883.16
2023-05-17T17:12:24.119Z,100885.16
2023-05-17T17:14:51.390Z,100897.84
2023-05-17T17:17:17.901Z,100898.66
2023-05-17T17:22:28.025Z,100912.19
2023-05-17T17:24:54.433Z,100902.66
2023-05-17T17:27:20.805Z,100914.16
2023-05-17T17:29:47.191Z,100915.75
2023-05-17T17:32:14.657Z,100922.09
2023-05-17T17:37:27.029Z,100912.63
2023-05-17T17:39:54.351Z,100920.97
2023-05-17T17:42:20.884Z,100918.59
2023-05-17T17:44:47.351Z,100928.56
2023-05-17T17:47:13.971Z,100929.38
2023-05-17T17:52:24.698Z,100938.94
2023-05-17T17:54:51.080Z,100947.28
2023-05-17T17:57:17.480Z,100940.13
2023-05-17T17:59:44.040Z,100943.69
2023-05-17T18:02:10.532Z,100947.69
2023-05-17T18:07:20.770Z,100948.91
2023-05-17T18:09:47.221Z,100954.03
2023-05-17T18:12:13.637Z,100954.47
2023-05-17T18:14:40.045Z,100952.47
2023-05-17T18:17:06.613Z,100956.03
2023-05-17T18:22:16.808Z,100964.00
2023-05-17T18:24:43.388Z,100974.75
2023-05-17T18:27:10.693Z,100976.69
2023-05-17T18:29:37.965Z,100975.53
2023-05-17T18:32:04.440Z,100979.91
2023-05-17T18:34:31.732Z,100980.72
2023-05-17T18:36:58.165Z,100993.84
2023-05-17T18:39:24.547Z,101003.75
2023-05-17T18:41:50.916Z,100999.41
2023-05-17T18:44:19.279Z,101006.94
2023-05-17T18:46:49.237Z,101012.50
2023-05-17T18:49:17.594Z,101018.91
2023-05-17T18:51:44.048Z,101027.63
2023-05-17T18:54:10.539Z,101031.59
2023-05-17T18:56:36.930Z,101038.75
2023-05-17T18:59:03.312Z,101039.56
2023-05-17T19:01:29.918Z,101037.56
2023-05-17T19:03:58.417Z,101046.75
2023-05-17T19:06:25.696Z,101043.97
2023-05-17T19:08:52.929Z,101050.72
2023-05-17T19:11:20.181Z,101047.50
2023-05-17T19:13:46.543Z,101056.25
2023-05-17T19:16:13.792Z,101055.47
2023-05-17T19:18:40.201Z,101058.28
2023-05-17T19:21:06.692Z,101048.75
2023-05-17T19:23:33.090Z,101047.91
2023-05-17T19:26:00.664Z,101052.31
2023-05-17T19:28:27.070Z,101046.75
2023-05-17T19:30:53.622Z,101058.66
2023-05-17T19:33:20.152Z,101056.28
2023-05-17T19:35:46.645Z,101055.88
2023-05-17T19:38:13.893Z,101049.13
2023-05-17T19:40:40.249Z,101052.31
2023-05-17T19:43:06.685Z,101062.28
2023-05-17T19:45:34.054Z,101059.44
2023-05-17T19:48:00.518Z,101059.03
2023-05-17T19:50:27.125Z,101060.66
2023-05-17T19:55:37.927Z,101061.84
2023-05-17T19:58:07.149Z,101058.66
2023-05-17T20:00:33.610Z,101056.28
2023-05-17T20:03:00.158Z,101059.44
2023-05-17T20:05:26.638Z,101059.44
2023-05-17T20:10:36.874Z,101063.44
2023-05-17T20:13:03.306Z,101070.63
2023-05-17T20:15:29.692Z,101069.81
2023-05-17T20:17:56.241Z,101069.06
2023-05-17T20:20:22.722Z,101069.06
2023-05-17T20:25:34.061Z,101073.84
2023-05-17T20:28:02.403Z,101075.00
2023-05-17T20:30:28.936Z,101070.22
2023-05-17T20:32:58.332Z,101073.44
2023-05-17T20:35:26.590Z,101078.56
2023-05-17T20:40:39.126Z,101090.06
2023-05-17T20:43:07.427Z,101090.91
2023-05-17T20:45:33.896Z,101088.91
2023-05-17T20:48:00.410Z,101090.44
2023-05-17T20:50:26.976Z,101099.22
2023-05-17T20:55:41.248Z,101105.59
2023-05-17T20:58:07.650Z,101109.56
2023-05-17T21:00:36.872Z,101114.72
2023-05-17T21:03:03.452Z,101120.69
2023-05-17T21:05:30.074Z,101131.81
2023-05-17T21:10:42.284Z,101133.81
2023-05-17T21:13:08.751Z,101137.38
2023-05-17T21:15:37.481Z,101143.31
2023-05-17T21:18:04.050Z,101146.44
2023-05-17T21:20:30.790Z,101152.44
2023-05-17T21:25:41.396Z,101156.34
2023-05-17T21:28:07.847Z,101155.97
2023-05-17T21:30:36.182Z,101159.16
2023-05-17T21:33:05.473Z,101161.91
2023-05-17T21:35:32.026Z,101166.69
2023-05-17T21:37:59.308Z,101162.31
2023-05-17T21:40:25.987Z,101173.38
2023-05-17T21:42:53.241Z,101178.56
2023-05-17T21:45:20.560Z,101178.56
2023-05-17T21:47:47.099Z,101171.81
2023-05-17T21:50:13.546Z,101186.09
2023-05-17T21:52:39.986Z,101185.91
2023-05-17T21:55:07.236Z,101197.81
2023-05-17T21:57:33.603Z,101198.34
2023-05-17T21:59:59.998Z,101206.28
2023-05-17T22:02:26.465Z,101197.91
2023-05-17T22:04:53.001Z,101213.81
2023-05-17T22:07:20.239Z,101209.84
2023-05-17T22:09:46.646Z,101198.34
2023-05-17T22:12:13.918Z,101199.13
2023-05-17T22:14:40.296Z,101208.22
2023-05-17T22:17:06.715Z,101216.16
2023-05-17T22:19:33.133Z,101218.16
2023-05-17T22:21:59.561Z,101211.75
2023-05-17T22:24:25.958Z,101211.66
2023-05-17T22:26:52.337Z,101213.59
2023-05-17T22:29:19.612Z,101209.03
2023-05-17T22:31:46.128Z,101215.41
2023-05-17T22:34:12.528Z,101215.47
2023-05-17T22:36:38.888Z,101216.63
2023-05-17T22:39:05.258Z,101215.75
2023-05-17T22:44:15.394Z,101224.06
2023-05-17T22:46:41.783Z,101222.09
2023-05-17T22:49:08.176Z,101232.69
2023-05-17T22:51:34.569Z,101234.72
2023-05-17T22:54:00.957Z,101231.41
2023-05-17T22:59:11.127Z,101234.28
2023-05-17T23:01:37.601Z,101224.75
2023-05-17T23:04:04.081Z,101237.06
2023-05-17T23:06:30.490Z,101239.91
2023-05-17T23:08:56.868Z,101252.56
2023-05-17T23:14:07.316Z,101252.91
2023-05-17T23:16:33.751Z,101260.44
2023-05-17T23:19:00.174Z,101258.03
2023-05-17T23:21:26.662Z,101265.22
2023-05-17T23:23:53.079Z,101267.13
2023-05-17T23:29:03.591Z,101267.44
2023-05-17T23:31:30.218Z,101275.38
2023-05-17T23:33:56.652Z,101279.34
2023-05-17T23:36:23.048Z,101278.53
2023-05-17T23:38:49.464Z,101282.13
2023-05-17T23:43:59.684Z,101278.50
2023-05-17T23:46:26.104Z,101281.69
2023-05-17T23:48:55.312Z,101274.94
2023-05-17T23:51:21.648Z,101282.84
2023-05-17T23:53:48.036Z,101284.38
2023-05-17T23:59:01.234Z,101275.97
